Time;durP1;ratioP1;P1;durP2;ratioP2;P2;SDS_P1;SDS_P2;PMS_P1;PMS_P2;Temp;Humidity;BMP_temperature;BMP_pressure;BME280_temperature;BME280_humidity;BME280_pressure;Samples;Min_cycle;Max_cycle;Signal;HPM_P1;HPM_P2
2022/04/05 00:00:41;;;;;;;9.38;6.20;;;;;;;;;;5035100;28;20112;-84
2022/04/05 00:03:07;;;;;;;8.88;5.82;;;;;;;;;;5034616;28;20057;-84
2022/04/05 00:05:33;;;;;;;8.05;5.15;;;;;;;;;;5035034;28;20079;-83
2022/04/05 00:07:59;;;;;;;8.70;5.72;;;;;;;;;;5034529;28;20021;-83
2022/04/05 00:10:26;;;;;;;8.82;5.55;;;;;;;;;;5034178;28;20473;-84
2022/04/05 00:12:52;;;;;;;10.82;6.05;;;;;;;;;;5034218;28;20473;-82
2022/04/05 00:15:18;;;;;;;8.85;6.25;;;;;;;;;;5034165;28;20104;-84
2022/04/05 00:17:44;;;;;;;12.88;6.90;;;;;;;;;;5048923;28;20112;-84
2022/04/05 00:20:10;;;;;;;8.27;5.57;;;;;;;;;;5058331;28;20029;-83
2022/04/05 00:22:36;;;;;;;12.00;5.97;;;;;;;;;;5054083;28;20051;-83
2022/04/05 00:25:03;;;;;;;11.27;6.13;;;;;;;;;;5053050;28;20037;-83
2022/04/05 00:27:29;;;;;;;10.25;6.70;;;;;;;;;;5052919;28;20059;-84
2022/04/05 00:29:55;;;;;;;10.40;6.20;;;;;;;;;;5054131;28;20037;-84
2022/04/05 00:32:21;;;;;;;12.85;6.60;;;;;;;;;;5058335;28;20169;-84
2022/04/05 00:34:47;;;;;;;10.70;6.47;;;;;;;;;;5048711;28;20032;-83
2022/04/05 00:37:13;;;;;;;9.57;6.13;;;;;;;;;;5050115;28;20036;-84
2022/04/05 00:39:39;;;;;;;18.13;7.28;;;;;;;;;;5062995;28;20040;-84
2022/04/05 00:42:05;;;;;;;12.15;6.80;;;;;;;;;;5056282;28;20040;-84
2022/04/05 00:44:31;;;;;;;11.32;7.55;;;;;;;;;;5035560;28;20040;-83
2022/04/05 00:47:01;;;;;;;11.30;7.88;;;;;;;;;;5035615;28;20030;-84
2022/04/05 00:49:30;;;;;;;11.02;7.57;;;;;;;;;;5035546;28;20050;-84
2022/04/05 00:51:57;;;;;;;13.45;7.35;;;;;;;;;;5036498;28;20474;-84
2022/04/05 00:54:25;;;;;;;12.52;7.95;;;;;;;;;;5035014;28;20036;-84
2022/04/05 00:56:52;;;;;;;13.45;8.40;;;;;;;;;;5041262;28;20025;-85
2022/04/05 00:59:19;;;;;;;9.48;7.65;;;;;;;;;;5055104;28;20044;-84
2022/04/05 01:01:45;;;;;;;11.77;8.10;;;;;;;;;;5050730;28;20438;-85
2022/04/05 01:04:12;;;;;;;15.10;7.82;;;;;;;;;;5053791;28;20082;-84
2022/04/05 01:06:46;;;;;;;14.05;7.68;;;;;;;;;;5052575;28;20033;-83
2022/04/05 01:09:12;;;;;;;12.77;7.82;;;;;;;;;;5035598;28;20156;-84
2022/04/05 01:11:38;;;;;;;12.75;7.45;;;;;;;;;;5034886;28;20431;-84
2022/04/05 01:14:05;;;;;;;9.98;7.35;;;;;;;;;;5034268;28;20632;-84
2022/04/05 01:16:31;;;;;;;12.93;7.95;;;;;;;;;;5033767;28;20082;-84
2022/04/05 01:18:58;;;;;;;17.35;8.55;;;;;;;;;;5068620;28;20418;-84
2022/04/05 01:21:24;;;;;;;14.30;8.02;;;;;;;;;;5074172;28;20056;-84
2022/04/05 01:24:09;;;;;;;15.73;8.43;;;;;;;;;;5053252;28;20175;-84
2022/04/05 01:26:38;;;;;;;13.23;8.43;;;;;;;;;;5042672;28;20699;-84
2022/04/05 01:29:05;;;;;;;12.05;8.38;;;;;;;;;;5033103;28;20089;-84
2022/04/05 01:31:31;;;;;;;16.23;9.20;;;;;;;;;;5039828;28;20155;-84
2022/04/05 01:33:58;;;;;;;18.50;9.73;;;;;;;;;;5031065;28;20033;-83
2022/04/05 01:36:25;;;;;;;10.30;8.52;;;;;;;;;;5032216;28;20052;-83
2022/04/05 01:38:51;;;;;;;15.55;8.77;;;;;;;;;;5032364;28;20025;-83
2022/04/05 01:41:17;;;;;;;15.75;9.45;;;;;;;;;;5030848;28;20523;-83
2022/04/05 01:43:43;;;;;;;14.50;9.07;;;;;;;;;;5032283;28;20029;-84
2022/04/05 01:46:09;;;;;;;12.50;9.60;;;;;;;;;;5040678;28;20025;-83
2022/04/05 01:48:35;;;;;;;14.25;9.65;;;;;;;;;;5052337;28;20039;-83
2022/04/05 01:51:01;;;;;;;13.82;9.57;;;;;;;;;;5051863;28;20067;-84
2022/04/05 01:53:27;;;;;;;17.27;9.45;;;;;;;;;;5049555;28;20465;-84
2022/04/05 01:55:53;;;;;;;15.02;9.23;;;;;;;;;;5031768;28;20049;-83
2022/04/05 01:58:19;;;;;;;14.88;9.52;;;;;;;;;;5039979;28;20017;-84
2022/04/05 02:00:45;;;;;;;14.65;9.23;;;;;;;;;;5051565;28;20033;-84
2022/04/05 02:03:12;;;;;;;16.25;9.77;;;;;;;;;;5050920;28;20488;-83
2022/04/05 02:05:38;;;;;;;13.38;9.70;;;;;;;;;;5050975;28;20064;-84
2022/04/05 02:08:04;;;;;;;16.58;10.23;;;;;;;;;;5051040;28;20094;-84
2022/04/05 02:10:30;;;;;;;15.60;10.65;;;;;;;;;;5051879;28;20104;-83
2022/04/05 02:12:56;;;;;;;21.50;9.90;;;;;;;;;;5075826;23;20020;-82
2022/04/05 02:15:22;;;;;;;18.35;10.35;;;;;;;;;;5041852;28;20040;-84
2022/04/05 02:17:48;;;;;;;19.17;12.13;;;;;;;;;;5044911;28;20465;-82
2022/04/05 02:20:15;;;;;;;18.13;10.07;;;;;;;;;;5031004;28;20120;-84
2022/04/05 02:22:41;;;;;;;13.95;9.70;;;;;;;;;;5032905;28;20561;-84
2022/04/05 02:25:08;;;;;;;16.60;9.93;;;;;;;;;;5032010;28;20151;-83
2022/04/05 02:27:34;;;;;;;18.48;10.68;;;;;;;;;;5014992;28;20026;-83
2022/04/05 02:30:00;;;;;;;13.95;9.60;;;;;;;;;;5016801;28;20029;-82
2022/04/05 02:32:26;;;;;;;19.95;10.40;;;;;;;;;;5017392;28;20025;-83
2022/04/05 02:34:52;;;;;;;21.30;11.05;;;;;;;;;;5015092;28;20029;-83
2022/04/05 02:37:18;;;;;;;16.40;10.00;;;;;;;;;;5016697;28;20022;-82
2022/04/05 02:39:44;;;;;;;18.85;10.25;;;;;;;;;;5015031;28;20029;-83
2022/04/05 02:42:10;;;;;;;16.25;11.13;;;;;;;;;;5032368;28;20097;-83
2022/04/05 02:44:38;;;;;;;23.88;12.20;;;;;;;;;;5036841;28;20029;-82
2022/04/05 02:47:04;;;;;;;15.85;11.13;;;;;;;;;;5035450;28;20022;-83
2022/04/05 02:49:30;;;;;;;23.30;12.82;;;;;;;;;;5043119;28;20451;-85
2022/04/05 02:51:56;;;;;;;18.77;11.77;;;;;;;;;;5044716;28;20022;-84
2022/04/05 02:54:22;;;;;;;20.08;12.50;;;;;;;;;;5042221;28;20504;-86
2022/04/05 02:56:48;;;;;;;19.52;12.02;;;;;;;;;;5043502;28;20061;-85
2022/04/05 02:59:14;;;;;;;26.30;13.02;;;;;;;;;;5044918;28;20061;-85
2022/04/05 03:01:40;;;;;;;20.02;13.10;;;;;;;;;;5044820;28;20621;-84
2022/04/05 03:04:06;;;;;;;20.73;12.38;;;;;;;;;;5035937;28;20022;-83
2022/04/05 03:06:32;;;;;;;18.08;10.98;;;;;;;;;;5036085;28;20488;-82
2022/04/05 03:08:59;;;;;;;17.80;11.23;;;;;;;;;;5036383;28;20389;-84
2022/04/05 03:11:26;;;;;;;11.30;8.18;;;;;;;;;;5037145;28;20044;-84
2022/04/05 03:13:52;;;;;;;17.58;12.82;;;;;;;;;;5034875;28;20052;-83
2022/04/05 03:16:18;;;;;;;19.88;12.25;;;;;;;;;;5036397;28;20478;-84
2022/04/05 03:18:46;;;;;;;19.60;13.38;;;;;;;;;;5036156;28;20030;-83
2022/04/05 03:21:13;;;;;;;18.67;12.77;;;;;;;;;;5035634;28;20029;-85
2022/04/05 03:23:39;;;;;;;21.98;12.52;;;;;;;;;;5033922;28;20026;-83
2022/04/05 03:26:05;;;;;;;25.58;14.10;;;;;;;;;;5035417;28;20485;-83
2022/04/05 03:28:31;;;;;;;24.60;14.80;;;;;;;;;;5036082;28;20051;-84
2022/04/05 03:30:57;;;;;;;26.73;13.45;;;;;;;;;;5034021;28;20021;-85
2022/04/05 03:33:23;;;;;;;19.42;13.32;;;;;;;;;;5035114;28;20128;-84
2022/04/05 03:35:49;;;;;;;21.48;12.48;;;;;;;;;;5035799;28;20029;-84
2022/04/05 03:38:15;;;;;;;20.83;13.82;;;;;;;;;;5034743;28;20037;-84
2022/04/05 03:40:41;;;;;;;22.90;13.70;;;;;;;;;;5033806;28;20067;-86
2022/04/05 03:43:11;;;;;;;20.35;13.85;;;;;;;;;;5034890;28;20075;-84
2022/04/05 03:45:37;;;;;;;23.95;13.85;;;;;;;;;;5033795;28;20110;-84
2022/04/05 03:48:03;;;;;;;25.30;14.15;;;;;;;;;;5035223;28;20018;-85
2022/04/05 03:50:30;;;;;;;24.08;12.40;;;;;;;;;;5034894;28;20101;-84
2022/04/05 03:52:59;;;;;;;21.15;13.43;;;;;;;;;;5033492;28;20025;-84
2022/04/05 03:55:25;;;;;;;22.52;13.10;;;;;;;;;;5035120;28;20393;-85
2022/04/05 03:57:51;;;;;;;21.92;13.52;;;;;;;;;;5034559;28;20025;-83
2022/04/05 04:00:17;;;;;;;24.83;14.77;;;;;;;;;;5035055;28;20108;-84
2022/04/05 04:02:43;;;;;;;20.90;13.27;;;;;;;;;;5033823;28;20030;-84
2022/04/05 04:05:09;;;;;;;22.92;13.93;;;;;;;;;;5034827;28;20036;-84
2022/04/05 04:07:42;;;;;;;21.75;14.45;;;;;;;;;;5034913;28;20064;-82
2022/04/05 04:10:08;;;;;;;20.13;13.15;;;;;;;;;;5032903;28;20018;-83
2022/04/05 04:12:34;;;;;;;24.38;15.60;;;;;;;;;;5034627;28;20045;-84
2022/04/05 04:15:00;;;;;;;21.65;13.85;;;;;;;;;;5034187;28;20691;-84
2022/04/05 04:17:26;;;;;;;22.70;13.73;;;;;;;;;;5032700;28;20017;-83
2022/04/05 04:19:52;;;;;;;25.58;13.48;;;;;;;;;;5033313;28;20056;-84
2022/04/05 04:22:18;;;;;;;24.67;14.38;;;;;;;;;;5023429;28;20025;-85
2022/04/05 04:24:44;;;;;;;22.58;14.65;;;;;;;;;;5013678;28;20033;-84
2022/04/05 04:27:13;;;;;;;24.25;13.82;;;;;;;;;;5025463;28;20033;-84
2022/04/05 04:29:39;;;;;;;25.77;14.93;;;;;;;;;;5035548;28;20021;-83
2022/04/05 04:32:05;;;;;;;29.90;15.75;;;;;;;;;;5034747;28;20032;-85
2022/04/05 04:34:31;;;;;;;27.27;15.85;;;;;;;;;;5034314;28;20051;-84
2022/04/05 04:36:57;;;;;;;25.20;15.32;;;;;;;;;;5032778;28;20548;-82
2022/04/05 04:39:23;;;;;;;22.02;14.70;;;;;;;;;;5033663;28;20496;-84
2022/04/05 04:41:50;;;;;;;23.77;14.40;;;;;;;;;;5032473;28;20394;-85
2022/04/05 04:44:16;;;;;;;27.80;16.13;;;;;;;;;;5032756;28;20033;-85
2022/04/05 04:46:43;;;;;;;23.33;15.00;;;;;;;;;;5032503;28;20243;-85
2022/04/05 04:49:09;;;;;;;20.95;13.27;;;;;;;;;;5031809;28;20040;-85
2022/04/05 04:51:35;;;;;;;26.02;16.50;;;;;;;;;;5032780;28;20025;-84
2022/04/05 04:54:01;;;;;;;23.73;14.55;;;;;;;;;;5032872;28;20044;-86
2022/04/05 04:56:27;;;;;;;24.20;14.77;;;;;;;;;;5032540;28;20029;-83
2022/04/05 04:58:54;;;;;;;21.90;13.20;;;;;;;;;;5034428;28;20021;-83
2022/04/05 05:01:20;;;;;;;21.98;13.48;;;;;;;;;;5034135;28;20117;-85
2022/04/05 05:03:46;;;;;;;19.73;12.77;;;;;;;;;;5034104;28;20036;-84
2022/04/05 05:06:12;;;;;;;26.70;14.52;;;;;;;;;;5034728;28;20036;-84
2022/04/05 05:08:38;;;;;;;20.42;13.20;;;;;;;;;;5033961;28;20025;-85
2022/04/05 05:11:04;;;;;;;21.35;13.60;;;;;;;;;;5035262;28;20373;-85
2022/04/05 05:13:31;;;;;;;22.38;14.00;;;;;;;;;;5034261;28;20037;-85
2022/04/05 05:15:57;;;;;;;22.17;14.25;;;;;;;;;;5035067;28;20397;-85
2022/04/05 05:18:23;;;;;;;27.40;14.60;;;;;;;;;;5025932;28;20025;-84
2022/04/05 05:20:49;;;;;;;21.00;14.35;;;;;;;;;;5035037;28;20072;-84
2022/04/05 05:23:16;;;;;;;31.75;14.48;;;;;;;;;;5035430;28;20073;-84
2022/04/05 05:25:42;;;;;;;21.38;13.88;;;;;;;;;;5032998;28;20032;-82
2022/04/05 05:28:08;;;;;;;21.42;13.50;;;;;;;;;;5041340;28;20056;-82
2022/04/05 05:30:35;;;;;;;24.42;13.95;;;;;;;;;;5036491;28;20030;-82
2022/04/05 05:33:01;;;;;;;21.85;11.85;;;;;;;;;;5044216;28;20470;-81
2022/04/05 05:35:27;;;;;;;19.65;12.48;;;;;;;;;;5035823;28;20039;-83
2022/04/05 05:37:53;;;;;;;17.20;11.70;;;;;;;;;;5043874;28;20056;-83
2022/04/05 05:40:19;;;;;;;24.33;14.00;;;;;;;;;;5035387;28;20041;-82
2022/04/05 05:43:02;;;;;;;19.60;12.75;;;;;;;;;;5035032;28;20509;-83
2022/04/05 05:45:28;;;;;;;24.90;13.23;;;;;;;;;;5034174;28;20072;-82
2022/04/05 05:47:54;;;;;;;24.42;13.15;;;;;;;;;;5044362;28;20055;-84
2022/04/05 05:50:21;;;;;;;20.15;13.15;;;;;;;;;;5043044;28;20045;-83
2022/04/05 05:52:47;;;;;;;24.60;15.40;;;;;;;;;;5035130;28;20056;-85
2022/04/05 05:55:14;;;;;;;22.60;13.65;;;;;;;;;;5031693;28;20029;-84
2022/04/05 05:57:40;;;;;;;17.85;12.52;;;;;;;;;;5033109;28;20033;-85
2022/04/05 06:00:08;;;;;;;21.13;12.82;;;;;;;;;;5034408;28;20101;-82
2022/04/05 06:02:38;;;;;;;23.75;12.93;;;;;;;;;;5031370;28;20036;-84
2022/04/05 06:05:04;;;;;;;22.85;13.75;;;;;;;;;;5033463;28;20022;-84
2022/04/05 06:07:30;;;;;;;20.70;13.45;;;;;;;;;;5033768;28;20045;-83
2022/04/05 06:09:56;;;;;;;22.48;13.85;;;;;;;;;;5031941;28;20367;-83
2022/04/05 06:12:22;;;;;;;22.80;13.43;;;;;;;;;;5032442;28;20028;-83
2022/04/05 06:14:48;;;;;;;24.17;13.25;;;;;;;;;;5032829;28;20120;-84
2022/04/05 06:17:14;;;;;;;29.98;13.93;;;;;;;;;;5028314;28;20056;-83
2022/04/05 06:19:40;;;;;;;20.08;13.07;;;;;;;;;;5013941;28;20073;-84
2022/04/05 06:22:06;;;;;;;20.90;13.00;;;;;;;;;;5023825;28;20022;-85
2022/04/05 06:24:32;;;;;;;25.38;14.90;;;;;;;;;;5045102;28;20025;-86
2022/04/05 06:26:58;;;;;;;21.75;13.48;;;;;;;;;;5033370;28;20060;-86
2022/04/05 06:29:24;;;;;;;26.38;13.48;;;;;;;;;;5033611;28;20021;-86
2022/04/05 06:31:51;;;;;;;22.35;13.85;;;;;;;;;;5033388;28;20017;-85
2022/04/05 06:34:17;;;;;;;25.42;14.32;;;;;;;;;;5031530;28;20022;-85
2022/04/05 06:36:43;;;;;;;22.80;13.95;;;;;;;;;;5032977;28;20043;-85
2022/04/05 06:39:09;;;;;;;27.77;14.00;;;;;;;;;;5033689;28;20029;-85
2022/04/05 06:41:35;;;;;;;20.35;12.40;;;;;;;;;;5033150;28;20033;-85
2022/04/05 06:44:01;;;;;;;24.00;14.82;;;;;;;;;;5032037;28;20031;-84
2022/04/05 06:46:27;;;;;;;22.02;13.10;;;;;;;;;;5033008;28;20029;-83
2022/04/05 06:48:53;;;;;;;22.90;14.20;;;;;;;;;;5034606;28;20017;-84
2022/04/05 06:51:20;;;;;;;22.63;13.48;;;;;;;;;;5034130;28;20018;-85
2022/04/05 06:53:47;;;;;;;18.20;12.45;;;;;;;;;;5030098;28;20032;-82
2022/04/05 06:56:13;;;;;;;21.27;12.73;;;;;;;;;;5036576;28;20021;-85
2022/04/05 06:58:39;;;;;;;21.35;12.05;;;;;;;;;;5035539;28;20104;-85
2022/04/05 07:01:05;;;;;;;17.90;11.88;;;;;;;;;;5033050;28;20033;-85
2022/04/05 07:03:31;;;;;;;19.27;12.20;;;;;;;;;;5032286;28;20116;-86
2022/04/05 07:05:58;;;;;;;20.17;12.07;;;;;;;;;;5033766;28;20049;-87
2022/04/05 07:08:24;;;;;;;19.45;12.60;;;;;;;;;;5049742;28;20030;-87
2022/04/05 07:10:50;;;;;;;18.55;12.02;;;;;;;;;;5033814;28;20083;-86
2022/04/05 07:13:16;;;;;;;18.48;11.93;;;;;;;;;;5035416;28;20078;-86
2022/04/05 07:15:42;;;;;;;19.35;11.75;;;;;;;;;;5036721;28;20021;-84
2022/04/05 07:18:09;;;;;;;23.35;12.93;;;;;;;;;;5036087;28;20022;-85
2022/04/05 07:20:35;;;;;;;19.65;12.00;;;;;;;;;;5034517;28;20662;-85
2022/04/05 07:23:01;;;;;;;20.48;11.77;;;;;;;;;;5035639;28;20037;-84
2022/04/05 07:25:27;;;;;;;19.00;11.05;;;;;;;;;;5035798;28;20037;-82
2022/04/05 07:27:53;;;;;;;20.58;12.27;;;;;;;;;;5035807;28;20045;-83
2022/04/05 07:30:19;;;;;;;24.13;13.13;;;;;;;;;;5033948;28;20021;-86
2022/04/05 07:32:46;;;;;;;16.73;11.50;;;;;;;;;;5036186;28;20032;-85
2022/04/05 07:35:13;;;;;;;23.02;12.15;;;;;;;;;;5035064;28;20022;-88
2022/04/05 07:37:39;;;;;;;18.90;11.70;;;;;;;;;;5035894;28;20056;-89
2022/04/05 07:40:08;;;;;;;17.13;11.27;;;;;;;;;;5034158;28;20448;-87
2022/04/05 07:42:38;;;;;;;18.05;11.93;;;;;;;;;;5022298;28;20028;-88
2022/04/05 07:45:05;;;;;;;18.52;10.70;;;;;;;;;;5056720;28;20044;-87
2022/04/05 07:47:31;;;;;;;22.75;12.38;;;;;;;;;;5048575;28;20036;-88
2022/04/05 07:49:57;;;;;;;22.48;12.85;;;;;;;;;;5035622;28;20029;-86
2022/04/05 07:52:23;;;;;;;18.00;12.50;;;;;;;;;;5039420;28;20021;-88
2022/04/05 07:54:49;;;;;;;23.95;13.48;;;;;;;;;;5038604;28;20112;-88
2022/04/05 07:57:15;;;;;;;20.67;12.68;;;;;;;;;;5037042;28;20021;-84
2022/04/05 07:59:41;;;;;;;19.45;12.50;;;;;;;;;;5034818;28;20032;-87
2022/04/05 08:02:07;;;;;;;22.73;13.02;;;;;;;;;;5034693;28;20508;-86
2022/04/05 08:04:33;;;;;;;21.15;13.00;;;;;;;;;;5034726;28;20032;-86
2022/04/05 08:06:59;;;;;;;18.25;13.20;;;;;;;;;;5033035;28;20485;-84
2022/04/05 08:09:25;;;;;;;19.65;13.27;;;;;;;;;;5033684;28;20056;-84
2022/04/05 08:11:51;;;;;;;25.35;13.90;;;;;;;;;;5033101;28;20075;-85
2022/04/05 08:14:17;;;;;;;28.08;13.93;;;;;;;;;;5032794;23;20047;-87
2022/04/05 08:16:43;;;;;;;24.67;13.55;;;;;;;;;;5004148;28;20034;-89
2022/04/05 08:19:09;;;;;;;26.33;12.95;;;;;;;;;;5014919;28;20026;-88
2022/04/05 08:21:36;;;;;;;24.33;13.23;;;;;;;;;;5032440;28;20029;-87
2022/04/05 08:24:02;;;;;;;21.83;14.18;;;;;;;;;;5020728;28;20034;-88
2022/04/05 08:26:28;;;;;;;22.13;14.02;;;;;;;;;;5014495;28;20033;-88
2022/04/05 08:28:57;;;;;;;25.35;13.32;;;;;;;;;;5016049;28;20022;-88
2022/04/05 08:31:23;;;;;;;26.85;13.95;;;;;;;;;;5012593;28;20033;-90
2022/04/05 08:33:49;;;;;;;18.58;12.85;;;;;;;;;;5010106;28;20026;-91
2022/04/05 08:36:16;;;;;;;23.38;13.43;;;;;;;;;;5007064;28;20113;-91
2022/04/05 08:38:42;;;;;;;22.83;13.07;;;;;;;;;;5020450;28;20037;-88
2022/04/05 08:41:17;;;;;;;23.48;13.65;;;;;;;;;;5018414;28;20030;-86
2022/04/05 08:43:43;;;;;;;23.63;12.73;;;;;;;;;;5023928;28;20061;-88
2022/04/05 08:46:10;;;;;;;20.20;13.10;;;;;;;;;;5034543;28;20030;-88
2022/04/05 08:48:37;;;;;;;24.42;13.80;;;;;;;;;;5034437;28;20030;-88
2022/04/05 08:51:03;;;;;;;23.17;13.35;;;;;;;;;;5035425;28;20041;-90
2022/04/05 08:53:29;;;;;;;22.02;13.18;;;;;;;;;;5022777;28;20526;-88
2022/04/05 08:55:55;;;;;;;22.30;12.68;;;;;;;;;;5008307;28;20109;-87
2022/04/05 08:58:21;;;;;;;20.52;12.20;;;;;;;;;;5013382;28;20056;-89
2022/04/05 09:00:47;;;;;;;23.60;13.50;;;;;;;;;;5012226;28;20083;-89
2022/04/05 09:03:13;;;;;;;25.83;13.40;;;;;;;;;;5029927;28;20026;-89
2022/04/05 09:05:43;;;;;;;25.52;12.82;;;;;;;;;;5012539;28;20465;-90
2022/04/05 09:08:13;;;;;;;21.08;11.73;;;;;;;;;;5013359;28;20101;-88
2022/04/05 09:11:20;;;;;;;21.10;12.65;;;;;;;;;;4999671;28;20022;-91
2022/04/05 09:13:57;;;;;;;18.58;11.65;;;;;;;;;;5006570;28;20030;-88
2022/04/05 09:16:28;;;;;;;25.00;13.27;;;;;;;;;;5000174;28;20026;-90
2022/04/05 09:22:13;;;;;;;18.67;11.00;;;;;;;;;;5000082;28;20046;-88
2022/04/05 09:24:43;;;;;;;24.25;12.30;;;;;;;;;;5010783;28;20084;-89
2022/04/05 09:27:09;;;;;;;18.55;12.95;;;;;;;;;;5012796;28;20030;-88
2022/04/05 09:29:42;;;;;;;20.55;12.07;;;;;;;;;;5011028;28;20580;-87
2022/04/05 09:32:31;;;;;;;17.13;11.57;;;;;;;;;;5010534;28;20080;-86
2022/04/05 09:35:29;;;;;;;21.40;11.32;;;;;;;;;;5014085;28;20120;-86
2022/04/05 09:38:15;;;;;;;21.42;11.40;;;;;;;;;;5009676;28;20041;-87
2022/04/05 09:41:00;;;;;;;17.30;11.80;;;;;;;;;;5010947;28;20030;-89
2022/04/05 09:58:16;;;;;;;20.00;12.07;;;;;;;;;;5012368;28;20037;-87
2022/04/05 10:03:58;;;;;;;18.40;12.55;;;;;;;;;;4939136;28;20081;-87
2022/04/05 10:06:25;;;;;;;18.10;12.27;;;;;;;;;;5010154;28;20030;-86
2022/04/05 10:08:51;;;;;;;20.65;13.52;;;;;;;;;;4975698;28;20023;-85
2022/04/05 10:11:17;;;;;;;18.88;12.07;;;;;;;;;;4994493;28;20061;-87
2022/04/05 10:13:43;;;;;;;17.88;11.40;;;;;;;;;;5012267;28;20021;-87
2022/04/05 10:16:11;;;;;;;18.45;12.05;;;;;;;;;;5012081;28;20650;-85
2022/04/05 10:18:37;;;;;;;19.55;12.13;;;;;;;;;;4993852;28;20520;-87
2022/04/05 10:21:04;;;;;;;18.05;12.13;;;;;;;;;;5012025;28;20026;-85
2022/04/05 10:23:31;;;;;;;19.38;10.90;;;;;;;;;;4994542;28;20022;-85
2022/04/05 10:25:58;;;;;;;21.42;11.48;;;;;;;;;;5011964;28;20033;-83
2022/04/05 10:28:29;;;;;;;20.98;12.15;;;;;;;;;;4994405;28;20040;-82
2022/04/05 10:31:13;;;;;;;16.83;11.82;;;;;;;;;;4994245;28;20036;-86
2022/04/05 10:33:39;;;;;;;18.67;12.32;;;;;;;;;;5012128;28;20045;-87
2022/04/05 10:36:08;;;;;;;18.30;11.88;;;;;;;;;;4994443;28;20061;-86
2022/04/05 10:38:34;;;;;;;17.73;11.50;;;;;;;;;;5012121;28;20034;-85
2022/04/05 10:41:11;;;;;;;19.05;12.35;;;;;;;;;;5011881;28;20510;-85
2022/04/05 10:43:38;;;;;;;18.05;11.30;;;;;;;;;;5011582;28;20041;-86
2022/04/05 10:46:05;;;;;;;18.13;11.55;;;;;;;;;;5011399;28;20034;-88
2022/04/05 10:48:34;;;;;;;16.35;11.15;;;;;;;;;;5014160;28;20028;-86
2022/04/05 10:51:00;;;;;;;19.80;12.38;;;;;;;;;;4997920;28;20124;-84
2022/04/05 10:53:35;;;;;;;19.30;12.30;;;;;;;;;;4997472;28;20164;-88
2022/04/05 10:56:08;;;;;;;20.75;12.40;;;;;;;;;;5013059;28;20076;-86
2022/04/05 10:58:35;;;;;;;19.13;12.15;;;;;;;;;;5015420;28;20041;-87
2022/04/05 11:01:18;;;;;;;19.25;13.15;;;;;;;;;;4997459;28;20398;-88
2022/04/05 11:04:04;;;;;;;18.67;12.38;;;;;;;;;;5016270;28;20017;-87
2022/04/05 11:06:30;;;;;;;20.80;13.30;;;;;;;;;;4997430;28;20033;-87
2022/04/05 11:08:58;;;;;;;22.90;13.60;;;;;;;;;;5014275;28;20026;-86
2022/04/05 11:11:34;;;;;;;21.67;13.77;;;;;;;;;;5017174;28;20029;-88
2022/04/05 11:14:03;;;;;;;23.40;14.43;;;;;;;;;;5001679;28;20018;-86
2022/04/05 11:19:43;;;;;;;23.42;14.55;;;;;;;;;;5011457;28;20101;-87
2022/04/05 11:22:21;;;;;;;25.67;14.57;;;;;;;;;;4996209;28;20030;-90
2022/04/05 11:24:57;;;;;;;22.92;13.68;;;;;;;;;;5009128;28;20041;-88
2022/04/05 11:27:31;;;;;;;20.50;14.05;;;;;;;;;;5034972;28;20042;-89
2022/04/05 11:30:15;;;;;;;22.17;12.80;;;;;;;;;;5034796;28;20056;-89
2022/04/05 11:33:01;;;;;;;21.15;14.52;;;;;;;;;;5010941;28;20033;-91
2022/04/05 11:35:27;;;;;;;23.95;14.82;;;;;;;;;;5014396;28;20379;-88
2022/04/05 11:37:53;;;;;;;25.25;15.25;;;;;;;;;;5015228;28;20109;-87
2022/04/05 11:40:19;;;;;;;22.73;14.73;;;;;;;;;;4997203;28;20033;-88
2022/04/05 11:42:46;;;;;;;23.15;14.95;;;;;;;;;;5015397;28;20018;-88
2022/04/05 11:45:12;;;;;;;21.95;13.30;;;;;;;;;;5020460;28;20553;-87
2022/04/05 11:47:38;;;;;;;21.13;14.00;;;;;;;;;;4996030;28;20030;-88
2022/04/05 11:50:09;;;;;;;24.20;14.30;;;;;;;;;;4995682;28;20058;-88
2022/04/05 11:52:35;;;;;;;25.92;14.05;;;;;;;;;;4999051;28;20512;-88
2022/04/05 11:58:01;;;;;;;21.30;13.18;;;;;;;;;;5035822;28;20040;-89
2022/04/05 12:00:27;;;;;;;24.25;15.05;;;;;;;;;;5014604;28;20112;-89
2022/04/05 12:03:03;;;;;;;21.00;14.35;;;;;;;;;;5014830;28;20025;-88
2022/04/05 12:05:42;;;;;;;24.75;14.05;;;;;;;;;;5014359;28;20022;-88
2022/04/05 12:08:12;;;;;;;24.02;14.77;;;;;;;;;;5015482;28;20045;-87
2022/04/05 12:10:38;;;;;;;21.48;14.60;;;;;;;;;;4997046;28;20026;-90
2022/04/05 12:13:04;;;;;;;24.83;14.35;;;;;;;;;;4997350;28;20466;-90
2022/04/05 12:15:32;;;;;;;21.67;14.75;;;;;;;;;;4996943;28;20033;-88
2022/04/05 12:18:17;;;;;;;25.38;15.75;;;;;;;;;;5014394;28;20033;-89
2022/04/05 12:21:00;;;;;;;27.08;14.98;;;;;;;;;;4996570;28;20029;-88
2022/04/05 12:23:45;;;;;;;27.55;16.35;;;;;;;;;;5007102;28;20637;-86
2022/04/05 12:26:11;;;;;;;26.83;14.30;;;;;;;;;;5013914;28;20034;-89
2022/04/05 12:28:39;;;;;;;26.60;15.25;;;;;;;;;;4996212;28;20022;-87
2022/04/05 12:31:05;;;;;;;22.08;14.32;;;;;;;;;;4996051;28;20021;-87
2022/04/05 12:33:31;;;;;;;22.38;13.80;;;;;;;;;;4996771;28;20025;-89
2022/04/05 12:35:57;;;;;;;23.05;14.20;;;;;;;;;;5014225;28;20548;-89
2022/04/05 12:38:23;;;;;;;25.38;14.88;;;;;;;;;;4996659;28;20399;-89
2022/04/05 12:40:49;;;;;;;23.55;14.65;;;;;;;;;;5013909;28;20026;-89
2022/04/05 12:43:16;;;;;;;20.25;13.40;;;;;;;;;;4996339;28;20030;-89
2022/04/05 12:45:42;;;;;;;20.38;13.13;;;;;;;;;;5013627;28;20113;-89
2022/04/05 12:48:12;;;;;;;17.50;12.35;;;;;;;;;;5014000;28;20021;-87
2022/04/05 12:50:45;;;;;;;22.42;11.95;;;;;;;;;;5014380;28;20470;-90
2022/04/05 12:53:13;;;;;;;17.92;11.60;;;;;;;;;;5014450;28;20025;-89
2022/04/05 12:55:39;;;;;;;19.48;10.68;;;;;;;;;;5014039;28;20026;-90
2022/04/05 12:58:07;;;;;;;16.63;11.05;;;;;;;;;;4996172;28;20393;-88
2022/04/05 13:00:41;;;;;;;18.05;11.30;;;;;;;;;;4996311;28;20022;-89
2022/04/05 13:03:09;;;;;;;13.85;10.50;;;;;;;;;;5013841;28;20034;-87
2022/04/05 13:08:33;;;;;;;14.15;10.77;;;;;;;;;;5013700;28;20517;-89
2022/04/05 13:10:59;;;;;;;16.55;11.15;;;;;;;;;;4995063;28;20088;-87
2022/04/05 13:13:27;;;;;;;17.55;11.70;;;;;;;;;;5013440;28;20018;-88
2022/04/05 13:16:02;;;;;;;16.13;11.45;;;;;;;;;;5013686;28;20025;-88
2022/04/05 13:18:35;;;;;;;15.80;11.25;;;;;;;;;;5013203;28;20022;-89
2022/04/05 13:21:05;;;;;;;16.45;10.73;;;;;;;;;;4995271;28;20030;-89
2022/04/05 13:23:32;;;;;;;16.17;11.43;;;;;;;;;;5012763;28;20062;-89
2022/04/05 13:25:59;;;;;;;14.25;10.30;;;;;;;;;;4996922;28;20050;-89
2022/04/05 13:28:32;;;;;;;16.92;11.38;;;;;;;;;;5007972;28;20064;-89
2022/04/05 13:31:08;;;;;;;17.73;11.40;;;;;;;;;;5006589;28;20028;-88
2022/04/05 13:33:34;;;;;;;18.05;11.15;;;;;;;;;;5001496;28;20030;-89
2022/04/05 13:36:00;;;;;;;18.92;11.95;;;;;;;;;;4995252;28;20109;-89
2022/04/05 13:38:27;;;;;;;21.50;12.95;;;;;;;;;;5022492;28;20030;-89
2022/04/05 13:40:53;;;;;;;17.35;11.27;;;;;;;;;;5014818;28;20060;-89
2022/04/05 13:43:20;;;;;;;19.55;13.88;;;;;;;;;;5003166;28;20029;-89
2022/04/05 13:45:46;;;;;;;19.20;12.88;;;;;;;;;;4994785;28;20038;-89
2022/04/05 13:48:15;;;;;;;20.73;13.73;;;;;;;;;;4995026;28;20061;-90
2022/04/05 13:50:41;;;;;;;22.30;12.93;;;;;;;;;;4994885;28;20014;-91
2022/04/05 13:56:09;;;;;;;17.27;11.65;;;;;;;;;;5241035;22;20096;-91
2022/04/05 13:58:35;;;;;;;19.92;13.10;;;;;;;;;;5014445;28;20022;-90
2022/04/05 14:01:04;;;;;;;21.30;13.85;;;;;;;;;;5014244;28;20031;-91
2022/04/05 14:07:14;;;;;;;21.10;13.55;;;;;;;;;;5009897;28;20034;-88
2022/04/05 14:09:42;;;;;;;23.30;13.10;;;;;;;;;;4981113;28;20534;-89
2022/04/05 14:12:08;;;;;;;22.98;14.25;;;;;;;;;;4994758;28;20037;-89
2022/04/05 14:14:34;;;;;;;23.73;14.93;;;;;;;;;;4996347;28;20109;-88
2022/04/05 14:17:00;;;;;;;29.38;17.50;;;;;;;;;;5014372;28;20182;-89
2022/04/05 14:19:27;;;;;;;28.52;16.27;;;;;;;;;;5033118;28;20044;-88
2022/04/05 14:21:53;;;;;;;25.45;15.88;;;;;;;;;;5033964;28;20042;-89
2022/04/05 14:24:20;;;;;;;29.75;15.75;;;;;;;;;;5037023;28;20069;-88
2022/04/05 14:26:46;;;;;;;25.02;15.68;;;;;;;;;;5019396;28;20030;-89
2022/04/05 14:29:13;;;;;;;25.50;16.90;;;;;;;;;;5037817;28;20038;-89
2022/04/05 14:31:40;;;;;;;28.65;17.48;;;;;;;;;;5029780;28;20026;-89
2022/04/05 14:34:06;;;;;;;27.83;16.00;;;;;;;;;;5060377;28;20033;-89
2022/04/05 14:36:32;;;;;;;24.50;15.98;;;;;;;;;;5041949;28;20029;-89
2022/04/05 14:38:58;;;;;;;25.65;16.27;;;;;;;;;;5059626;28;20014;-90
2022/04/05 14:41:24;;;;;;;26.45;17.15;;;;;;;;;;5048005;28;20299;-89
2022/04/05 14:43:50;;;;;;;25.55;16.85;;;;;;;;;;5006417;28;20573;-89
2022/04/05 14:46:16;;;;;;;27.77;17.73;;;;;;;;;;4995869;28;20026;-89
2022/04/05 14:48:43;;;;;;;34.72;17.67;;;;;;;;;;4995605;28;20049;-88
2022/04/05 14:51:11;;;;;;;26.08;15.55;;;;;;;;;;4996577;28;20022;-89
2022/04/05 14:53:37;;;;;;;25.58;17.73;;;;;;;;;;5010491;28;20037;-89
2022/04/05 14:56:03;;;;;;;26.45;17.92;;;;;;;;;;5019102;28;20091;-90
2022/04/05 14:58:29;;;;;;;28.30;16.55;;;;;;;;;;5015344;28;20505;-89